sensor_id;sensor_type;location;lat;lon;timestamp;P1;durP1;ratioP1;P2;durP2;ratioP2
48945;SDS011;34999;50.940;3.998;2023-08-01T00:01:21;4.87;;;3.47;;
48945;SDS011;34999;50.940;3.998;2023-08-01T00:03:51;4.17;;;3.63;;
48945;SDS011;34999;50.940;3.998;2023-08-01T00:06:19;6.17;;;3.73;;
48945;SDS011;34999;50.940;3.998;2023-08-01T00:08:48;4.10;;;3.70;;
48945;SDS011;34999;50.940;3.998;2023-08-01T00:11:17;7.97;;;4.40;;
48945;SDS011;34999;50.940;3.998;2023-08-01T00:13:45;7.93;;;3.93;;
48945;SDS011;34999;50.940;3.998;2023-08-01T00:16:13;6.57;;;4.03;;
48945;SDS011;34999;50.940;3.998;2023-08-01T00:18:42;7.70;;;4.40;;
48945;SDS011;34999;50.940;3.998;2023-08-01T00:21:11;8.57;;;4.20;;
48945;SDS011;34999;50.940;3.998;2023-08-01T00:23:40;6.03;;;4.23;;
48945;SDS011;34999;50.940;3.998;2023-08-01T00:26:08;6.00;;;4.40;;
48945;SDS011;34999;50.940;3.998;2023-08-01T00:28:36;8.20;;;4.70;;
48945;SDS011;34999;50.940;3.998;2023-08-01T00:31:05;7.00;;;4.70;;
48945;SDS011;34999;50.940;3.998;2023-08-01T00:33:36;8.60;;;4.73;;
48945;SDS011;34999;50.940;3.998;2023-08-01T00:36:04;6.57;;;4.27;;
48945;SDS011;34999;50.940;3.998;2023-08-01T00:38:37;4.93;;;4.17;;
48945;SDS011;34999;50.940;3.998;2023-08-01T00:41:05;7.07;;;5.00;;
48945;SDS011;34999;50.940;3.998;2023-08-01T00:43:33;9.23;;;5.37;;
48945;SDS011;34999;50.940;3.998;2023-08-01T00:46:03;12.97;;;5.50;;
48945;SDS011;34999;50.940;3.998;2023-08-01T00:48:32;9.73;;;4.83;;
48945;SDS011;34999;50.940;3.998;2023-08-01T00:51:03;8.30;;;5.57;;
48945;SDS011;34999;50.940;3.998;2023-08-01T00:53:33;9.07;;;5.77;;
48945;SDS011;34999;50.940;3.998;2023-08-01T00:56:03;13.13;;;6.13;;
48945;SDS011;34999;50.940;3.998;2023-08-01T00:58:32;14.30;;;6.20;;
48945;SDS011;34999;50.940;3.998;2023-08-01T01:01:00;11.10;;;5.80;;
48945;SDS011;34999;50.940;3.998;2023-08-01T01:03:30;11.63;;;6.20;;
48945;SDS011;34999;50.940;3.998;2023-08-01T01:06:01;10.27;;;6.63;;
48945;SDS011;34999;50.940;3.998;2023-08-01T01:08:34;13.17;;;6.67;;
48945;SDS011;34999;50.940;3.998;2023-08-01T01:11:03;18.30;;;7.27;;
48945;SDS011;34999;50.940;3.998;2023-08-01T01:13:32;10.63;;;6.87;;
48945;SDS011;34999;50.940;3.998;2023-08-01T01:16:00;12.70;;;6.47;;
48945;SDS011;34999;50.940;3.998;2023-08-01T01:18:29;16.13;;;7.17;;
48945;SDS011;34999;50.940;3.998;2023-08-01T01:20:59;11.50;;;6.90;;
48945;SDS011;34999;50.940;3.998;2023-08-01T01:23:27;9.83;;;6.90;;
48945;SDS011;34999;50.940;3.998;2023-08-01T01:25:57;12.83;;;7.03;;
48945;SDS011;34999;50.940;3.998;2023-08-01T01:28:26;14.97;;;7.40;;
48945;SDS011;34999;50.940;3.998;2023-08-01T01:30:55;18.53;;;7.40;;
48945;SDS011;34999;50.940;3.998;2023-08-01T01:33:24;13.47;;;7.97;;
48945;SDS011;34999;50.940;3.998;2023-08-01T01:35:53;14.17;;;8.07;;
48945;SDS011;34999;50.940;3.998;2023-08-01T01:38:23;13.47;;;7.87;;
48945;SDS011;34999;50.940;3.998;2023-08-01T01:40:51;19.07;;;9.10;;
48945;SDS011;34999;50.940;3.998;2023-08-01T01:43:19;14.87;;;9.10;;
48945;SDS011;34999;50.940;3.998;2023-08-01T01:45:48;16.00;;;9.00;;
48945;SDS011;34999;50.940;3.998;2023-08-01T01:48:16;19.37;;;9.73;;
48945;SDS011;34999;50.940;3.998;2023-08-01T01:50:45;17.77;;;10.60;;
48945;SDS011;34999;50.940;3.998;2023-08-01T01:53:13;17.80;;;10.80;;
48945;SDS011;34999;50.940;3.998;2023-08-01T01:55:43;18.23;;;10.57;;
48945;SDS011;34999;50.940;3.998;2023-08-01T01:58:11;17.23;;;10.50;;
48945;SDS011;34999;50.940;3.998;2023-08-01T02:00:39;23.43;;;11.00;;
48945;SDS011;34999;50.940;3.998;2023-08-01T02:03:08;17.53;;;10.27;;
48945;SDS011;34999;50.940;3.998;2023-08-01T02:05:37;19.97;;;10.23;;
48945;SDS011;34999;50.940;3.998;2023-08-01T02:08:07;21.33;;;10.93;;
48945;SDS011;34999;50.940;3.998;2023-08-01T02:10:35;20.90;;;10.13;;
48945;SDS011;34999;50.940;3.998;2023-08-01T02:13:05;18.43;;;11.30;;
48945;SDS011;34999;50.940;3.998;2023-08-01T02:15:34;21.30;;;11.23;;
48945;SDS011;34999;50.940;3.998;2023-08-01T02:18:03;20.23;;;12.00;;
48945;SDS011;34999;50.940;3.998;2023-08-01T02:20:31;19.97;;;10.77;;
48945;SDS011;34999;50.940;3.998;2023-08-01T02:22:59;19.93;;;11.27;;
48945;SDS011;34999;50.940;3.998;2023-08-01T02:25:28;20.40;;;11.17;;
48945;SDS011;34999;50.940;3.998;2023-08-01T02:27:56;19.37;;;10.20;;
48945;SDS011;34999;50.940;3.998;2023-08-01T02:30:26;23.13;;;10.97;;
48945;SDS011;34999;50.940;3.998;2023-08-01T02:32:55;20.90;;;11.77;;
48945;SDS011;34999;50.940;3.998;2023-08-01T02:35:24;18.30;;;10.27;;
48945;SDS011;34999;50.940;3.998;2023-08-01T02:37:52;17.33;;;10.60;;
48945;SDS011;34999;50.940;3.998;2023-08-01T02:40:21;14.73;;;10.17;;
48945;SDS011;34999;50.940;3.998;2023-08-01T02:42:50;17.73;;;9.70;;
48945;SDS011;34999;50.940;3.998;2023-08-01T02:45:18;22.80;;;9.57;;
48945;SDS011;34999;50.940;3.998;2023-08-01T02:47:48;18.77;;;9.03;;
48945;SDS011;34999;50.940;3.998;2023-08-01T02:50:16;15.80;;;9.27;;
48945;SDS011;34999;50.940;3.998;2023-08-01T02:52:45;18.70;;;8.30;;
48945;SDS011;34999;50.940;3.998;2023-08-01T02:55:13;22.90;;;8.47;;
48945;SDS011;34999;50.940;3.998;2023-08-01T02:57:42;15.40;;;7.60;;
48945;SDS011;34999;50.940;3.998;2023-08-01T03:00:10;13.57;;;6.73;;
48945;SDS011;34999;50.940;3.998;2023-08-01T03:02:39;22.77;;;7.43;;
48945;SDS011;34999;50.940;3.998;2023-08-01T03:05:09;13.17;;;7.13;;
48945;SDS011;34999;50.940;3.998;2023-08-01T03:07:37;14.30;;;7.37;;
48945;SDS011;34999;50.940;3.998;2023-08-01T03:10:06;22.50;;;7.30;;
48945;SDS011;34999;50.940;3.998;2023-08-01T03:12:39;13.77;;;6.93;;
48945;SDS011;34999;50.940;3.998;2023-08-01T03:15:08;24.20;;;7.17;;
48945;SDS011;34999;50.940;3.998;2023-08-01T03:17:37;13.60;;;7.03;;
48945;SDS011;34999;50.940;3.998;2023-08-01T03:20:06;14.20;;;7.27;;
48945;SDS011;34999;50.940;3.998;2023-08-01T03:22:39;17.80;;;8.10;;
48945;SDS011;34999;50.940;3.998;2023-08-01T03:25:08;20.37;;;7.40;;
48945;SDS011;34999;50.940;3.998;2023-08-01T03:27:36;20.73;;;8.20;;
48945;SDS011;34999;50.940;3.998;2023-08-01T03:30:05;15.37;;;7.60;;
48945;SDS011;34999;50.940;3.998;2023-08-01T03:32:35;19.33;;;8.23;;
48945;SDS011;34999;50.940;3.998;2023-08-01T03:35:04;17.30;;;8.23;;
48945;SDS011;34999;50.940;3.998;2023-08-01T03:37:35;14.23;;;8.57;;
48945;SDS011;34999;50.940;3.998;2023-08-01T03:40:06;16.73;;;7.47;;
48945;SDS011;34999;50.940;3.998;2023-08-01T03:42:36;19.93;;;8.60;;
48945;SDS011;34999;50.940;3.998;2023-08-01T03:45:05;17.80;;;8.83;;
48945;SDS011;34999;50.940;3.998;2023-08-01T03:47:34;19.17;;;8.33;;
48945;SDS011;34999;50.940;3.998;2023-08-01T03:50:03;19.47;;;7.70;;
48945;SDS011;34999;50.940;3.998;2023-08-01T03:52:32;17.17;;;8.00;;
48945;SDS011;34999;50.940;3.998;2023-08-01T03:55:00;16.60;;;8.00;;
48945;SDS011;34999;50.940;3.998;2023-08-01T03:57:29;17.00;;;8.30;;
48945;SDS011;34999;50.940;3.998;2023-08-01T04:00:00;17.90;;;8.60;;
48945;SDS011;34999;50.940;3.998;2023-08-01T04:02:29;14.47;;;8.00;;
48945;SDS011;34999;50.940;3.998;2023-08-01T04:04:57;17.33;;;8.17;;
48945;SDS011;34999;50.940;3.998;2023-08-01T04:07:26;20.10;;;8.63;;
48945;SDS011;34999;50.940;3.998;2023-08-01T04:09:54;20.03;;;8.87;;
48945;SDS011;34999;50.940;3.998;2023-08-01T04:12:22;13.87;;;7.80;;
48945;SDS011;34999;50.940;3.998;2023-08-01T04:14:52;19.40;;;8.83;;
48945;SDS011;34999;50.940;3.998;2023-08-01T04:17:20;18.30;;;8.17;;
48945;SDS011;34999;50.940;3.998;2023-08-01T04:19:49;16.37;;;8.50;;
48945;SDS011;34999;50.940;3.998;2023-08-01T04:22:17;19.73;;;8.83;;
48945;SDS011;34999;50.940;3.998;2023-08-01T04:24:45;18.43;;;8.50;;
48945;SDS011;34999;50.940;3.998;2023-08-01T04:27:13;21.07;;;9.33;;
48945;SDS011;34999;50.940;3.998;2023-08-01T04:29:42;18.67;;;9.07;;
48945;SDS011;34999;50.940;3.998;2023-08-01T04:32:11;17.83;;;9.40;;
48945;SDS011;34999;50.940;3.998;2023-08-01T04:34:41;21.67;;;8.90;;
48945;SDS011;34999;50.940;3.998;2023-08-01T04:37:09;16.43;;;7.97;;
48945;SDS011;34999;50.940;3.998;2023-08-01T04:39:38;18.20;;;7.47;;
48945;SDS011;34999;50.940;3.998;2023-08-01T04:42:06;16.93;;;8.23;;
48945;SDS011;34999;50.940;3.998;2023-08-01T04:44:34;15.10;;;7.77;;
48945;SDS011;34999;50.940;3.998;2023-08-01T04:47:03;19.53;;;8.00;;
48945;SDS011;34999;50.940;3.998;2023-08-01T04:49:33;13.73;;;7.07;;
48945;SDS011;34999;50.940;3.998;2023-08-01T04:52:01;18.70;;;7.57;;
48945;SDS011;34999;50.940;3.998;2023-08-01T04:54:33;15.57;;;7.20;;
48945;SDS011;34999;50.940;3.998;2023-08-01T04:57:01;15.30;;;7.00;;
48945;SDS011;34999;50.940;3.998;2023-08-01T04:59:30;20.47;;;7.27;;
48945;SDS011;34999;50.940;3.998;2023-08-01T05:02:00;17.33;;;6.97;;
48945;SDS011;34999;50.940;3.998;2023-08-01T05:04:28;14.53;;;7.10;;
48945;SDS011;34999;50.940;3.998;2023-08-01T05:06:58;17.53;;;7.40;;
48945;SDS011;34999;50.940;3.998;2023-08-01T05:09:26;20.30;;;6.97;;
48945;SDS011;34999;50.940;3.998;2023-08-01T05:11:55;19.37;;;7.33;;
48945;SDS011;34999;50.940;3.998;2023-08-01T05:14:23;14.60;;;7.00;;
48945;SDS011;34999;50.940;3.998;2023-08-01T05:16:52;16.57;;;7.50;;
48945;SDS011;34999;50.940;3.998;2023-08-01T05:19:20;15.63;;;6.90;;
48945;SDS011;34999;50.940;3.998;2023-08-01T05:21:49;16.37;;;7.43;;
48945;SDS011;34999;50.940;3.998;2023-08-01T05:24:18;14.53;;;7.53;;
48945;SDS011;34999;50.940;3.998;2023-08-01T05:26:47;14.83;;;7.30;;
48945;SDS011;34999;50.940;3.998;2023-08-01T05:29:15;18.57;;;7.70;;
48945;SDS011;34999;50.940;3.998;2023-08-01T05:31:43;14.97;;;6.90;;
48945;SDS011;34999;50.940;3.998;2023-08-01T05:34:12;17.87;;;7.10;;
48945;SDS011;34999;50.940;3.998;2023-08-01T05:36:40;15.07;;;6.30;;
48945;SDS011;34999;50.940;3.998;2023-08-01T05:39:09;16.13;;;6.47;;
48945;SDS011;34999;50.940;3.998;2023-08-01T05:41:39;13.27;;;6.67;;
48945;SDS011;34999;50.940;3.998;2023-08-01T05:44:07;15.83;;;6.60;;
48945;SDS011;34999;50.940;3.998;2023-08-01T05:46:35;12.40;;;6.77;;
48945;SDS011;34999;50.940;3.998;2023-08-01T05:49:04;14.27;;;6.50;;
48945;SDS011;34999;50.940;3.998;2023-08-01T05:51:33;11.77;;;6.37;;
48945;SDS011;34999;50.940;3.998;2023-08-01T05:54:01;10.73;;;6.17;;
48945;SDS011;34999;50.940;3.998;2023-08-01T05:56:29;16.33;;;6.43;;
48945;SDS011;34999;50.940;3.998;2023-08-01T05:58:59;12.33;;;5.83;;
48945;SDS011;34999;50.940;3.998;2023-08-01T06:01:27;14.47;;;6.20;;
48945;SDS011;34999;50.940;3.998;2023-08-01T06:03:56;19.10;;;6.80;;
48945;SDS011;34999;50.940;3.998;2023-08-01T06:06:25;13.13;;;6.43;;
48945;SDS011;34999;50.940;3.998;2023-08-01T06:08:53;13.83;;;6.00;;
48945;SDS011;34999;50.940;3.998;2023-08-01T06:11:22;15.37;;;6.40;;
48945;SDS011;34999;50.940;3.998;2023-08-01T06:13:50;14.47;;;6.50;;
48945;SDS011;34999;50.940;3.998;2023-08-01T06:16:20;19.40;;;6.93;;
48945;SDS011;34999;50.940;3.998;2023-08-01T06:18:52;11.83;;;5.70;;
48945;SDS011;34999;50.940;3.998;2023-08-01T06:21:20;14.93;;;6.67;;
48945;SDS011;34999;50.940;3.998;2023-08-01T06:23:49;13.83;;;6.20;;
48945;SDS011;34999;50.940;3.998;2023-08-01T06:26:17;13.43;;;6.10;;
48945;SDS011;34999;50.940;3.998;2023-08-01T06:28:46;12.27;;;6.20;;
48945;SDS011;34999;50.940;3.998;2023-08-01T06:31:14;9.97;;;5.87;;
48945;SDS011;34999;50.940;3.998;2023-08-01T06:33:43;14.57;;;6.17;;
48945;SDS011;34999;50.940;3.998;2023-08-01T06:36:12;16.17;;;5.83;;
48945;SDS011;34999;50.940;3.998;2023-08-01T06:38:43;11.87;;;5.53;;
48945;SDS011;34999;50.940;3.998;2023-08-01T06:41:11;12.27;;;5.40;;
48945;SDS011;34999;50.940;3.998;2023-08-01T06:43:39;9.47;;;5.50;;
48945;SDS011;34999;50.940;3.998;2023-08-01T06:46:08;10.07;;;5.67;;
48945;SDS011;34999;50.940;3.998;2023-08-01T06:48:36;13.83;;;5.97;;
48945;SDS011;34999;50.940;3.998;2023-08-01T06:51:06;11.27;;;5.40;;
48945;SDS011;34999;50.940;3.998;2023-08-01T06:53:34;9.63;;;5.73;;
48945;SDS011;34999;50.940;3.998;2023-08-01T06:56:03;9.60;;;4.77;;
48945;SDS011;34999;50.940;3.998;2023-08-01T06:58:31;14.03;;;5.23;;
48945;SDS011;34999;50.940;3.998;2023-08-01T07:00:59;10.93;;;4.87;;
48945;SDS011;34999;50.940;3.998;2023-08-01T07:03:28;13.10;;;5.33;;
48945;SDS011;34999;50.940;3.998;2023-08-01T07:05:57;12.37;;;5.27;;
48945;SDS011;34999;50.940;3.998;2023-08-01T07:08:26;18.23;;;5.30;;
48945;SDS011;34999;50.940;3.998;2023-08-01T07:10:54;11.40;;;4.60;;
48945;SDS011;34999;50.940;3.998;2023-08-01T07:13:23;11.93;;;5.23;;
48945;SDS011;34999;50.940;3.998;2023-08-01T07:15:51;14.73;;;5.20;;
48945;SDS011;34999;50.940;3.998;2023-08-01T07:18:20;11.53;;;5.47;;
48945;SDS011;34999;50.940;3.998;2023-08-01T07:20:58;11.17;;;5.50;;
48945;SDS011;34999;50.940;3.998;2023-08-01T07:23:28;13.33;;;6.50;;
48945;SDS011;34999;50.940;3.998;2023-08-01T07:25:57;10.17;;;5.53;;
48945;SDS011;34999;50.940;3.998;2023-08-01T07:28:25;13.30;;;6.17;;
48945;SDS011;34999;50.940;3.998;2023-08-01T07:31:00;14.53;;;6.30;;
48945;SDS011;34999;50.940;3.998;2023-08-01T07:33:28;12.30;;;6.27;;
48945;SDS011;34999;50.940;3.998;2023-08-01T07:35:57;12.93;;;6.00;;
48945;SDS011;34999;50.940;3.998;2023-08-01T07:38:25;12.93;;;5.60;;
48945;SDS011;34999;50.940;3.998;2023-08-01T07:40:55;12.77;;;5.53;;
48945;SDS011;34999;50.940;3.998;2023-08-01T07:43:25;9.67;;;5.43;;
48945;SDS011;34999;50.940;3.998;2023-08-01T07:45:57;12.97;;;5.30;;
48945;SDS011;34999;50.940;3.998;2023-08-01T07:48:25;15.87;;;5.73;;
48945;SDS011;34999;50.940;3.998;2023-08-01T07:50:54;10.80;;;5.27;;
48945;SDS011;34999;50.940;3.998;2023-08-01T07:53:22;8.97;;;5.50;;
48945;SDS011;34999;50.940;3.998;2023-08-01T07:55:54;9.97;;;4.90;;
48945;SDS011;34999;50.940;3.998;2023-08-01T07:58:23;10.90;;;5.67;;
48945;SDS011;34999;50.940;3.998;2023-08-01T08:00:51;8.67;;;6.07;;
48945;SDS011;34999;50.940;3.998;2023-08-01T08:03:20;13.70;;;6.10;;
48945;SDS011;34999;50.940;3.998;2023-08-01T08:05:50;10.67;;;5.90;;
48945;SDS011;34999;50.940;3.998;2023-08-01T08:08:19;12.10;;;5.77;;
48945;SDS011;34999;50.940;3.998;2023-08-01T08:10:47;8.83;;;5.93;;
48945;SDS011;34999;50.940;3.998;2023-08-01T08:13:19;9.30;;;4.87;;
48945;SDS011;34999;50.940;3.998;2023-08-01T08:15:48;7.33;;;4.53;;
48945;SDS011;34999;50.940;3.998;2023-08-01T08:18:17;7.07;;;4.60;;
48945;SDS011;34999;50.940;3.998;2023-08-01T08:20:46;8.27;;;4.30;;
48945;SDS011;34999;50.940;3.998;2023-08-01T08:23:15;8.37;;;4.30;;
48945;SDS011;34999;50.940;3.998;2023-08-01T08:25:43;5.17;;;4.40;;
48945;SDS011;34999;50.940;3.998;2023-08-01T08:28:13;7.47;;;4.00;;
48945;SDS011;34999;50.940;3.998;2023-08-01T08:30:43;7.87;;;4.63;;
48945;SDS011;34999;50.940;3.998;2023-08-01T08:33:17;8.03;;;4.33;;
48945;SDS011;34999;50.940;3.998;2023-08-01T08:35:47;10.88;;;4.80;;
48945;SDS011;34999;50.940;3.998;2023-08-01T08:38:16;5.83;;;4.13;;
48945;SDS011;34999;50.940;3.998;2023-08-01T08:40:48;6.97;;;3.58;;
48945;SDS011;34999;50.940;3.998;2023-08-01T08:43:26;5.22;;;3.60;;
48945;SDS011;34999;50.940;3.998;2023-08-01T08:45:57;9.63;;;4.07;;
48945;SDS011;34999;50.940;3.998;2023-08-01T08:48:28;7.63;;;3.40;;
48945;SDS011;34999;50.940;3.998;2023-08-01T08:50:58;5.63;;;3.43;;
48945;SDS011;34999;50.940;3.998;2023-08-01T08:53:27;7.87;;;4.00;;
48945;SDS011;34999;50.940;3.998;2023-08-01T08:55:57;6.20;;;3.27;;
48945;SDS011;34999;50.940;3.998;2023-08-01T08:58:27;7.10;;;3.53;;
48945;SDS011;34999;50.940;3.998;2023-08-01T09:00:58;6.13;;;3.90;;
48945;SDS011;34999;50.940;3.998;2023-08-01T09:03:30;5.73;;;3.30;;
48945;SDS011;34999;50.940;3.998;2023-08-01T09:06:00;6.77;;;3.33;;
48945;SDS011;34999;50.940;3.998;2023-08-01T09:08:32;7.03;;;3.25;;
48945;SDS011;34999;50.940;3.998;2023-08-01T09:11:03;8.20;;;3.33;;
48945;SDS011;34999;50.940;3.998;2023-08-01T09:13:32;4.13;;;3.77;;
48945;SDS011;34999;50.940;3.998;2023-08-01T09:16:03;4.45;;;4.05;;
48945;SDS011;34999;50.940;3.998;2023-08-01T09:18:46;7.13;;;4.20;;
48945;SDS011;34999;50.940;3.998;2023-08-01T09:21:17;6.57;;;3.80;;
48945;SDS011;34999;50.940;3.998;2023-08-01T09:23:46;8.17;;;4.77;;
48945;SDS011;34999;50.940;3.998;2023-08-01T09:26:14;13.47;;;4.33;;
48945;SDS011;34999;50.940;3.998;2023-08-01T09:28:43;4.60;;;4.20;;
48945;SDS011;34999;50.940;3.998;2023-08-01T09:31:12;7.23;;;4.37;;
48945;SDS011;34999;50.940;3.998;2023-08-01T09:33:41;9.13;;;4.30;;
48945;SDS011;34999;50.940;3.998;2023-08-01T09:36:10;5.50;;;4.23;;
48945;SDS011;34999;50.940;3.998;2023-08-01T09:38:48;6.07;;;4.27;;
48945;SDS011;34999;50.940;3.998;2023-08-01T09:41:17;7.10;;;3.60;;
48945;SDS011;34999;50.940;3.998;2023-08-01T09:43:46;8.07;;;3.88;;
48945;SDS011;34999;50.940;3.998;2023-08-01T09:46:16;6.47;;;3.58;;
48945;SDS011;34999;50.940;3.998;2023-08-01T09:48:45;6.15;;;3.55;;
48945;SDS011;34999;50.940;3.998;2023-08-01T09:51:13;7.78;;;3.38;;
48945;SDS011;34999;50.940;3.998;2023-08-01T09:53:47;10.57;;;3.53;;
48945;SDS011;34999;50.940;3.998;2023-08-01T09:56:17;3.47;;;3.10;;
48945;SDS011;34999;50.940;3.998;2023-08-01T09:58:48;3.60;;;2.93;;
48945;SDS011;34999;50.940;3.998;2023-08-01T10:01:19;4.13;;;2.70;;
48945;SDS011;34999;50.940;3.998;2023-08-01T10:03:51;6.00;;;3.17;;
48945;SDS011;34999;50.940;3.998;2023-08-01T10:06:21;6.73;;;3.13;;
48945;SDS011;34999;50.940;3.998;2023-08-01T10:08:52;5.93;;;2.90;;
48945;SDS011;34999;50.940;3.998;2023-08-01T10:11:21;6.13;;;2.70;;
48945;SDS011;34999;50.940;3.998;2023-08-01T10:13:50;3.93;;;2.43;;
48945;SDS011;34999;50.940;3.998;2023-08-01T10:16:20;5.03;;;2.73;;
48945;SDS011;34999;50.940;3.998;2023-08-01T10:18:49;4.40;;;2.60;;
48945;SDS011;34999;50.940;3.998;2023-08-01T10:21:18;4.57;;;2.50;;
48945;SDS011;34999;50.940;3.998;2023-08-01T10:23:48;3.43;;;2.20;;
48945;SDS011;34999;50.940;3.998;2023-08-01T10:26:17;8.03;;;2.80;;
48945;SDS011;34999;50.940;3.998;2023-08-01T10:28:49;4.53;;;2.30;;
48945;SDS011;34999;50.940;3.998;2023-08-01T10:31:20;6.93;;;2.30;;
48945;SDS011;34999;50.940;3.998;2023-08-01T10:33:49;6.13;;;2.60;;
48945;SDS011;34999;50.940;3.998;2023-08-01T10:36:19;8.50;;;2.93;;
48945;SDS011;34999;50.940;3.998;2023-08-01T10:38:48;3.67;;;2.60;;
48945;SDS011;34999;50.940;3.998;2023-08-01T10:41:18;4.93;;;2.43;;
48945;SDS011;34999;50.940;3.998;2023-08-01T10:43:47;6.07;;;2.77;;
48945;SDS011;34999;50.940;3.998;2023-08-01T10:46:16;4.70;;;2.63;;
48945;SDS011;34999;50.940;3.998;2023-08-01T10:48:50;8.10;;;2.60;;
48945;SDS011;34999;50.940;3.998;2023-08-01T10:51:22;3.93;;;3.40;;
48945;SDS011;34999;50.940;3.998;2023-08-01T10:53:50;9.93;;;3.40;;
48945;SDS011;34999;50.940;3.998;2023-08-01T10:56:19;6.17;;;2.90;;
48945;SDS011;34999;50.940;3.998;2023-08-01T10:58:50;4.87;;;2.90;;
48945;SDS011;34999;50.940;3.998;2023-08-01T11:01:20;5.80;;;2.87;;
48945;SDS011;34999;50.940;3.998;2023-08-01T11:03:49;4.13;;;2.80;;
48945;SDS011;34999;50.940;3.998;2023-08-01T11:06:18;5.65;;;3.05;;
48945;SDS011;34999;50.940;3.998;2023-08-01T11:08:46;4.70;;;2.13;;
48945;SDS011;34999;50.940;3.998;2023-08-01T11:11:15;3.83;;;2.42;;
48945;SDS011;34999;50.940;3.998;2023-08-01T11:13:53;3.60;;;2.00;;
48945;SDS011;34999;50.940;3.998;2023-08-01T11:16:24;5.00;;;2.25;;
48945;SDS011;34999;50.940;3.998;2023-08-01T11:18:55;4.17;;;2.10;;
48945;SDS011;34999;50.940;3.998;2023-08-01T11:21:28;7.00;;;2.10;;
48945;SDS011;34999;50.940;3.998;2023-08-01T11:23:56;2.40;;;2.00;;
48945;SDS011;34999;50.940;3.998;2023-08-01T11:26:25;1.77;;;1.67;;
48945;SDS011;34999;50.940;3.998;2023-08-01T11:28:54;3.37;;;1.80;;
48945;SDS011;34999;50.940;3.998;2023-08-01T11:31:22;2.97;;;1.90;;
48945;SDS011;34999;50.940;3.998;2023-08-01T11:33:59;3.40;;;1.97;;
48945;SDS011;34999;50.940;3.998;2023-08-01T11:36:28;4.05;;;1.80;;
48945;SDS011;34999;50.940;3.998;2023-08-01T11:38:57;3.90;;;1.77;;
48945;SDS011;34999;50.940;3.998;2023-08-01T11:41:28;3.30;;;1.53;;
48945;SDS011;34999;50.940;3.998;2023-08-01T11:44:01;3.30;;;2.00;;
48945;SDS011;34999;50.940;3.998;2023-08-01T11:46:31;3.83;;;1.87;;
48945;SDS011;34999;50.940;3.998;2023-08-01T11:49:03;2.30;;;1.70;;
48945;SDS011;34999;50.940;3.998;2023-08-01T11:51:38;1.90;;;1.47;;
48945;SDS011;34999;50.940;3.998;2023-08-01T11:54:08;2.97;;;1.73;;
48945;SDS011;34999;50.940;3.998;2023-08-01T11:56:38;3.43;;;1.60;;
48945;SDS011;34999;50.940;3.998;2023-08-01T11:59:08;2.80;;;1.90;;
48945;SDS011;34999;50.940;3.998;2023-08-01T12:01:38;3.50;;;1.63;;
48945;SDS011;34999;50.940;3.998;2023-08-01T12:04:08;2.90;;;1.60;;
48945;SDS011;34999;50.940;3.998;2023-08-01T12:06:37;4.57;;;2.00;;
48945;SDS011;34999;50.940;3.998;2023-08-01T12:09:10;4.20;;;1.80;;
48945;SDS011;34999;50.940;3.998;2023-08-01T12:11:40;3.20;;;1.80;;
48945;SDS011;34999;50.940;3.998;2023-08-01T12:14:10;2.50;;;1.70;;
48945;SDS011;34999;50.940;3.998;2023-08-01T12:16:41;3.67;;;2.03;;
48945;SDS011;34999;50.940;3.998;2023-08-01T12:19:16;5.37;;;1.93;;
48945;SDS011;34999;50.940;3.998;2023-08-01T12:21:46;4.00;;;1.93;;
48945;SDS011;34999;50.940;3.998;2023-08-01T12:24:15;7.67;;;2.10;;
48945;SDS011;34999;50.940;3.998;2023-08-01T12:26:44;6.60;;;1.73;;
48945;SDS011;34999;50.940;3.998;2023-08-01T12:29:12;2.73;;;1.57;;
48945;SDS011;34999;50.940;3.998;2023-08-01T12:31:41;3.23;;;1.50;;
48945;SDS011;34999;50.940;3.998;2023-08-01T12:34:10;3.10;;;1.80;;
48945;SDS011;34999;50.940;3.998;2023-08-01T12:36:42;2.87;;;1.80;;
48945;SDS011;34999;50.940;3.998;2023-08-01T12:39:10;3.43;;;2.03;;
48945;SDS011;34999;50.940;3.998;2023-08-01T12:41:39;5.33;;;2.17;;
48945;SDS011;34999;50.940;3.998;2023-08-01T12:44:07;3.40;;;2.00;;
48945;SDS011;34999;50.940;3.998;2023-08-01T12:46:36;4.30;;;1.87;;
48945;SDS011;34999;50.940;3.998;2023-08-01T12:49:14;4.17;;;1.93;;
48945;SDS011;34999;50.940;3.998;2023-08-01T12:51:43;5.37;;;2.03;;
48945;SDS011;34999;50.940;3.998;2023-08-01T12:54:11;3.07;;;2.10;;
48945;SDS011;34999;50.940;3.998;2023-08-01T12:56:39;3.30;;;1.87;;
48945;SDS011;34999;50.940;3.998;2023-08-01T12:59:08;2.90;;;1.90;;
48945;SDS011;34999;50.940;3.998;2023-08-01T13:01:36;6.27;;;2.17;;
48945;SDS011;34999;50.940;3.998;2023-08-01T13:04:05;2.43;;;1.87;;
48945;SDS011;34999;50.940;3.998;2023-08-01T13:06:35;3.33;;;2.10;;
48945;SDS011;34999;50.940;3.998;2023-08-01T13:09:03;3.57;;;2.03;;
48945;SDS011;34999;50.940;3.998;2023-08-01T13:11:33;6.13;;;2.63;;
48945;SDS011;34999;50.940;3.998;2023-08-01T13:14:02;3.43;;;2.17;;
48945;SDS011;34999;50.940;3.998;2023-08-01T13:16:30;3.40;;;2.10;;
48945;SDS011;34999;50.940;3.998;2023-08-01T13:18:59;2.83;;;2.00;;
48945;SDS011;34999;50.940;3.998;2023-08-01T13:21:27;5.03;;;2.03;;
48945;SDS011;34999;50.940;3.998;2023-08-01T13:23:57;2.97;;;2.00;;
48945;SDS011;34999;50.940;3.998;2023-08-01T13:26:25;8.03;;;2.27;;
48945;SDS011;34999;50.940;3.998;2023-08-01T13:29:02;5.57;;;2.03;;
48945;SDS011;34999;50.940;3.998;2023-08-01T13:31:31;8.57;;;2.07;;
48945;SDS011;34999;50.940;3.998;2023-08-01T13:33:59;1.93;;;1.60;;
48945;SDS011;34999;50.940;3.998;2023-08-01T13:36:28;5.23;;;1.83;;
48945;SDS011;34999;50.940;3.998;2023-08-01T13:38:57;6.67;;;2.20;;
48945;SDS011;34999;50.940;3.998;2023-08-01T13:41:26;5.73;;;1.87;;
48945;SDS011;34999;50.940;3.998;2023-08-01T13:43:54;6.20;;;2.07;;
48945;SDS011;34999;50.940;3.998;2023-08-01T13:46:23;4.27;;;2.00;;
48945;SDS011;34999;50.940;3.998;2023-08-01T13:48:54;4.67;;;1.97;;
48945;SDS011;34999;50.940;3.998;2023-08-01T13:51:23;2.60;;;1.80;;
48945;SDS011;34999;50.940;3.998;2023-08-01T13:53:51;1.93;;;1.50;;
48945;SDS011;34999;50.940;3.998;2023-08-01T13:56:21;3.20;;;2.10;;
48945;SDS011;34999;50.940;3.998;2023-08-01T13:58:49;6.07;;;2.03;;
48945;SDS011;34999;50.940;3.998;2023-08-01T14:01:17;6.10;;;2.17;;
48945;SDS011;34999;50.940;3.998;2023-08-01T14:03:46;3.67;;;2.10;;
48945;SDS011;34999;50.940;3.998;2023-08-01T14:06:15;5.27;;;1.90;;
48945;SDS011;34999;50.940;3.998;2023-08-01T14:08:43;3.17;;;1.90;;
48945;SDS011;34999;50.940;3.998;2023-08-01T14:11:11;6.10;;;2.30;;
48945;SDS011;34999;50.940;3.998;2023-08-01T14:13:41;7.77;;;2.00;;
48945;SDS011;34999;50.940;3.998;2023-08-01T14:16:09;6.03;;;2.27;;
48945;SDS011;34999;50.940;3.998;2023-08-01T14:18:38;4.37;;;2.00;;
48945;SDS011;34999;50.940;3.998;2023-08-01T14:21:06;5.70;;;2.10;;
48945;SDS011;34999;50.940;3.998;2023-08-01T14:23:35;4.90;;;2.07;;
48945;SDS011;34999;50.940;3.998;2023-08-01T14:26:05;5.93;;;2.20;;
48945;SDS011;34999;50.940;3.998;2023-08-01T14:28:33;4.03;;;2.03;;
48945;SDS011;34999;50.940;3.998;2023-08-01T14:31:03;3.00;;;2.10;;
48945;SDS011;34999;50.940;3.998;2023-08-01T14:33:32;6.00;;;2.50;;
48945;SDS011;34999;50.940;3.998;2023-08-01T14:36:00;6.67;;;2.10;;
48945;SDS011;34999;50.940;3.998;2023-08-01T14:38:28;3.57;;;2.00;;
48945;SDS011;34999;50.940;3.998;2023-08-01T14:40:57;7.17;;;1.97;;
48945;SDS011;34999;50.940;3.998;2023-08-01T14:43:36;3.57;;;2.13;;
48945;SDS011;34999;50.940;3.998;2023-08-01T14:46:06;4.97;;;2.10;;
48945;SDS011;34999;50.940;3.998;2023-08-01T14:48:35;4.57;;;1.97;;
48945;SDS011;34999;50.940;3.998;2023-08-01T14:51:04;5.37;;;2.43;;
48945;SDS011;34999;50.940;3.998;2023-08-01T14:53:33;3.70;;;2.13;;